Time;durP1;ratioP1;P1;durP2;ratioP2;P2;SDS_P1;SDS_P2;PMS_P1;PMS_P2;Temp;Humidity;BMP_temperature;BMP_pressure;BME280_temperature;BME280_humidity;BME280_pressure;Samples;Min_cycle;Max_cycle;Signal;HPM_P1;HPM_P2
2023/07/16 00:01:26;;;;;;;0.80;0.80;;;24.70;46.70;;;;;;4998064;28;20231;-63
2023/07/16 00:03:51;;;;;;;0.90;0.90;;;24.70;46.70;;;;;;4993363;28;20683;-65
2023/07/16 00:06:17;;;;;;;0.90;0.90;;;24.60;46.60;;;;;;5001183;28;20673;-63
2023/07/16 00:08:42;;;;;;;0.83;0.83;;;24.60;46.60;;;;;;4998198;28;20223;-64
2023/07/16 00:11:08;;;;;;;0.90;0.90;;;24.60;46.50;;;;;;4998604;28;20227;-63
2023/07/16 00:13:33;;;;;;;0.80;0.80;;;24.70;46.70;;;;;;4997824;28;20390;-65
2023/07/16 00:15:59;;;;;;;0.90;0.90;;;24.70;46.70;;;;;;4997679;28;20228;-63
2023/07/16 00:18:24;;;;;;;0.90;0.90;;;24.70;46.70;;;;;;4999679;28;20568;-65
2023/07/16 00:20:50;;;;;;;0.90;0.83;;;24.70;46.70;;;;;;4997232;28;20706;-63
2023/07/16 00:23:15;;;;;;;1.00;0.90;;;24.60;46.60;;;;;;4998267;28;20237;-63
2023/07/16 00:25:41;;;;;;;0.90;0.90;;;24.60;46.60;;;;;;5000800;28;20247;-64
2023/07/16 00:28:06;;;;;;;0.97;0.87;;;24.70;46.70;;;;;;4997689;28;20223;-64
2023/07/16 00:30:32;;;;;;;0.90;0.90;;;24.60;46.60;;;;;;4996863;28;20243;-63
2023/07/16 00:32:57;;;;;;;0.80;0.70;;;24.60;46.70;;;;;;4998116;28;20230;-63
2023/07/16 00:35:23;;;;;;;0.83;0.83;;;24.60;46.60;;;;;;4997492;28;20258;-63
2023/07/16 00:37:48;;;;;;;1.17;1.07;;;24.60;46.60;;;;;;4997390;28;20251;-63
2023/07/16 00:40:14;;;;;;;0.93;0.93;;;24.60;46.60;;;;;;5000089;28;20336;-64
2023/07/16 00:42:40;;;;;;;0.97;0.90;;;24.60;46.60;;;;;;4997975;28;20310;-64
2023/07/16 00:45:12;;;;;;;1.00;1.00;;;24.70;46.80;;;;;;4996737;28;20254;-64
2023/07/16 00:47:37;;;;;;;0.87;0.87;;;24.60;46.70;;;;;;5000002;28;20237;-65
2023/07/16 00:50:03;;;;;;;0.90;0.90;;;24.60;46.60;;;;;;4996176;28;20449;-64
2023/07/16 00:52:29;;;;;;;0.90;0.90;;;24.60;46.60;;;;;;4993965;28;20222;-64
2023/07/16 00:54:55;;;;;;;1.00;0.93;;;24.60;46.60;;;;;;4999691;28;20690;-64
2023/07/16 00:57:20;;;;;;;0.80;0.80;;;24.60;46.70;;;;;;4998679;28;20224;-64
2023/07/16 00:59:46;;;;;;;1.00;0.90;;;24.60;46.60;;;;;;4988805;28;20224;-63
2023/07/16 01:02:11;;;;;;;1.10;1.00;;;24.60;46.70;;;;;;4999855;28;20278;-64
2023/07/16 01:04:37;;;;;;;0.80;0.80;;;24.60;46.60;;;;;;4994850;28;20262;-64
2023/07/16 01:07:06;;;;;;;0.80;0.80;;;24.60;46.70;;;;;;4996474;28;20292;-64
2023/07/16 01:09:33;;;;;;;1.10;0.90;;;24.60;46.80;;;;;;4995541;28;20254;-63
2023/07/16 01:12:00;;;;;;;1.10;1.00;;;24.70;46.80;;;;;;4995820;28;20492;-63
2023/07/16 01:14:27;;;;;;;0.97;0.97;;;24.70;46.80;;;;;;4995141;28;20492;-64
2023/07/16 01:16:58;;;;;;;1.57;0.90;;;24.70;46.80;;;;;;4996068;28;20885;-63
2023/07/16 01:19:24;;;;;;;0.80;0.80;;;24.60;46.70;;;;;;4996300;28;20476;-63
2023/07/16 01:22:01;;;;;;;1.20;1.10;;;24.60;46.70;;;;;;4999413;28;20459;-63
2023/07/16 01:24:40;;;;;;;1.17;1.07;;;24.60;46.70;;;;;;4998835;28;20759;-63
2023/07/16 01:27:34;;;;;;;1.00;0.90;;;24.60;46.70;;;;;;4998455;28;20459;-65
2023/07/16 01:30:04;;;;;;;1.10;1.00;;;24.60;46.70;;;;;;4995452;28;20961;-64
2023/07/16 01:32:34;;;;;;;1.17;1.10;;;24.60;46.70;;;;;;4996895;28;20457;-64
2023/07/16 01:35:00;;;;;;;1.20;1.10;;;24.60;46.70;;;;;;4995730;28;21006;-64
2023/07/16 01:37:26;;;;;;;1.10;1.00;;;24.60;46.70;;;;;;4997383;28;20514;-63
2023/07/16 01:39:51;;;;;;;1.10;1.00;;;24.60;46.80;;;;;;4996581;28;20464;-65
2023/07/16 01:42:17;;;;;;;0.97;0.93;;;24.60;46.80;;;;;;4980837;28;20227;-64
2023/07/16 01:44:42;;;;;;;1.20;1.10;;;24.60;46.70;;;;;;4997896;28;20246;-64
2023/07/16 01:47:18;;;;;;;1.10;1.00;;;24.60;46.70;;;;;;4998709;28;20281;-64
2023/07/16 01:49:43;;;;;;;0.90;0.90;;;24.60;46.70;;;;;;4996185;28;20227;-64
2023/07/16 01:52:09;;;;;;;0.80;0.80;;;24.60;46.70;;;;;;4999676;28;20459;-63
2023/07/16 01:54:35;;;;;;;1.20;1.10;;;24.60;46.70;;;;;;4997062;28;20233;-63
2023/07/16 01:57:01;;;;;;;0.93;0.93;;;24.60;46.70;;;;;;4995906;28;20333;-64
2023/07/16 01:59:27;;;;;;;1.00;0.90;;;24.60;46.70;;;;;;4995409;28;20475;-63
2023/07/16 02:01:52;;;;;;;0.90;0.90;;;24.60;46.70;;;;;;4996557;28;20727;-64
2023/07/16 02:04:18;;;;;;;1.10;1.00;;;24.60;46.70;;;;;;5000518;28;20220;-64
2023/07/16 02:06:43;;;;;;;1.10;1.00;;;24.60;46.80;;;;;;4996337;28;20588;-64
2023/07/16 02:09:10;;;;;;;0.90;0.90;;;24.60;46.80;;;;;;4995675;28;20306;-64
2023/07/16 02:11:36;;;;;;;1.07;0.97;;;24.60;46.70;;;;;;4999266;28;20219;-64
2023/07/16 02:14:01;;;;;;;1.10;1.00;;;24.60;46.80;;;;;;4995340;28;20486;-65
2023/07/16 02:16:27;;;;;;;1.20;1.10;;;24.60;46.80;;;;;;4998643;28;20227;-63
2023/07/16 02:18:52;;;;;;;1.00;1.00;;;24.60;46.80;;;;;;4994460;28;20224;-64
2023/07/16 02:21:18;;;;;;;1.00;1.00;;;24.60;46.80;;;;;;4995959;28;20227;-63
2023/07/16 02:23:43;;;;;;;1.00;0.93;;;24.60;46.80;;;;;;4994908;28;20223;-65
2023/07/16 02:26:09;;;;;;;0.90;0.90;;;24.60;46.80;;;;;;4999587;28;20349;-63
2023/07/16 02:28:34;;;;;;;1.07;1.00;;;24.60;46.80;;;;;;4994327;28;20239;-63
2023/07/16 02:31:00;;;;;;;1.00;0.93;;;24.60;46.80;;;;;;4997229;28;20227;-63
2023/07/16 02:33:26;;;;;;;1.87;0.90;;;24.60;46.80;;;;;;4996159;28;20235;-64
2023/07/16 02:35:51;;;;;;;1.20;1.10;;;24.60;46.80;;;;;;4998437;28;20232;-64
2023/07/16 02:38:17;;;;;;;1.10;1.00;;;24.60;46.80;;;;;;4998006;28;20223;-64
2023/07/16 02:40:47;;;;;;;1.00;1.00;;;24.60;46.70;;;;;;4996162;28;20757;-64
2023/07/16 02:43:13;;;;;;;1.10;1.00;;;24.60;46.70;;;;;;4994737;28;20234;-64
2023/07/16 02:45:39;;;;;;;0.90;0.90;;;24.60;46.80;;;;;;4997035;28;20500;-64
2023/07/16 02:48:06;;;;;;;1.20;1.10;;;24.60;46.80;;;;;;4996587;28;20761;-63
2023/07/16 02:50:35;;;;;;;0.90;0.90;;;24.60;46.80;;;;;;4999669;28;20218;-64
2023/07/16 02:53:01;;;;;;;1.10;1.00;;;24.60;46.80;;;;;;4993453;28;20503;-64
2023/07/16 02:55:27;;;;;;;0.90;0.90;;;24.60;46.80;;;;;;4997518;28;20464;-63
2023/07/16 02:57:53;;;;;;;0.90;0.90;;;24.60;46.80;;;;;;4993803;28;20461;-63
2023/07/16 03:00:18;;;;;;;1.27;1.17;;;24.60;46.80;;;;;;4995357;28;20215;-63
2023/07/16 03:02:44;;;;;;;1.00;1.00;;;24.60;46.70;;;;;;4997314;28;20681;-64
2023/07/16 03:05:09;;;;;;;0.90;0.90;;;24.60;46.70;;;;;;4999776;28;20231;-64
2023/07/16 03:07:35;;;;;;;0.90;0.90;;;24.60;46.80;;;;;;5001894;28;20305;-63
2023/07/16 03:10:00;;;;;;;1.20;1.10;;;24.60;46.80;;;;;;4994758;28;20230;-64
2023/07/16 03:12:26;;;;;;;1.00;0.90;;;24.60;46.90;;;;;;4997287;28;20235;-63
2023/07/16 03:14:54;;;;;;;1.47;1.17;;;24.60;46.80;;;;;;4997429;28;20284;-64
2023/07/16 03:17:22;;;;;;;0.83;0.83;;;24.60;46.80;;;;;;4996067;28;20227;-63
2023/07/16 03:19:48;;;;;;;1.17;1.07;;;24.60;46.80;;;;;;4994799;28;20481;-63
2023/07/16 03:22:14;;;;;;;1.00;0.90;;;24.60;46.80;;;;;;4996369;28;20502;-63
2023/07/16 03:24:39;;;;;;;0.90;0.90;;;24.60;46.80;;;;;;4991978;28;20246;-63
2023/07/16 03:27:06;;;;;;;1.00;0.83;;;24.60;46.80;;;;;;4996272;28;20280;-64
2023/07/16 03:29:33;;;;;;;0.73;0.73;;;24.60;46.80;;;;;;4996770;28;20283;-66
2023/07/16 03:31:58;;;;;;;0.90;0.90;;;24.60;46.80;;;;;;4996491;28;20468;-63
2023/07/16 03:34:24;;;;;;;1.63;0.90;;;24.60;47.60;;;;;;4979286;28;20514;-63
2023/07/16 03:36:49;;;;;;;0.90;0.90;;;24.60;46.80;;;;;;4994478;28;20690;-65
2023/07/16 03:39:15;;;;;;;1.13;1.03;;;24.60;46.80;;;;;;4994122;28;20216;-63
2023/07/16 03:41:40;;;;;;;0.80;0.80;;;24.60;46.80;;;;;;4995575;28;20246;-64
2023/07/16 03:44:06;;;;;;;0.90;0.90;;;24.60;46.80;;;;;;4992767;28;20220;-64
2023/07/16 03:46:31;;;;;;;0.90;0.90;;;24.60;46.80;;;;;;5001763;28;20251;-65
2023/07/16 03:48:57;;;;;;;1.20;1.10;;;24.60;46.80;;;;;;4998223;28;20242;-63
2023/07/16 03:51:22;;;;;;;0.90;0.90;;;24.60;46.80;;;;;;4985326;28;20238;-65
2023/07/16 03:53:48;;;;;;;1.10;0.80;;;24.60;46.80;;;;;;4996703;28;20277;-63
2023/07/16 03:56:13;;;;;;;0.90;0.90;;;24.60;46.80;;;;;;4998543;28;20258;-63
2023/07/16 03:58:39;;;;;;;1.10;1.00;;;24.60;46.80;;;;;;4999891;28;20757;-64
2023/07/16 04:01:05;;;;;;;0.90;0.90;;;24.60;46.80;;;;;;5002273;28;20219;-64
2023/07/16 04:03:30;;;;;;;1.10;1.00;;;24.60;46.80;;;;;;4999876;28;20223;-63
2023/07/16 04:06:09;;;;;;;1.10;1.00;;;24.60;46.80;;;;;;4998850;28;20243;-63
2023/07/16 04:08:34;;;;;;;0.90;0.90;;;24.50;46.70;;;;;;4994883;28;20231;-64
2023/07/16 04:11:00;;;;;;;0.90;0.90;;;24.50;46.70;;;;;;5001386;28;20462;-63
2023/07/16 04:13:25;;;;;;;1.23;1.13;;;24.50;46.70;;;;;;4995722;28;20232;-64
2023/07/16 04:15:53;;;;;;;1.47;0.80;;;24.60;46.80;;;;;;5000369;28;20260;-64
2023/07/16 04:18:18;;;;;;;0.77;0.77;;;24.60;46.80;;;;;;4998424;28;20561;-63
2023/07/16 04:20:44;;;;;;;0.90;0.90;;;24.50;46.70;;;;;;5000196;28;20482;-63
2023/07/16 04:23:09;;;;;;;0.87;0.80;;;24.60;46.80;;;;;;4998577;28;20926;-63
2023/07/16 04:25:35;;;;;;;1.03;0.97;;;24.50;46.70;;;;;;4999380;28;20228;-64
2023/07/16 04:28:03;;;;;;;0.90;0.90;;;24.50;46.70;;;;;;5001599;28;20247;-64
2023/07/16 04:30:29;;;;;;;0.80;0.80;;;24.50;46.70;;;;;;4999414;28;20305;-64
2023/07/16 04:32:55;;;;;;;0.80;0.80;;;24.50;46.70;;;;;;5000293;28;21365;-63
2023/07/16 04:35:20;;;;;;;1.20;1.00;;;24.50;46.70;;;;;;4999699;28;20219;-63
2023/07/16 04:37:46;;;;;;;0.90;0.90;;;24.60;46.80;;;;;;4998356;28;20237;-63
2023/07/16 04:40:11;;;;;;;0.90;0.90;;;24.50;46.70;;;;;;4998414;28;20272;-63
2023/07/16 04:42:37;;;;;;;0.90;0.90;;;24.60;46.80;;;;;;4997120;28;20259;-63
2023/07/16 04:45:03;;;;;;;0.80;0.80;;;24.60;46.80;;;;;;4999210;28;20239;-64
2023/07/16 04:47:28;;;;;;;0.80;0.80;;;24.60;46.80;;;;;;4996336;28;20236;-63
2023/07/16 04:49:54;;;;;;;0.83;0.83;;;24.60;46.70;;;;;;4997490;28;20457;-63
2023/07/16 04:52:19;;;;;;;1.00;0.90;;;24.60;46.70;;;;;;4997825;28;20257;-63
2023/07/16 04:54:45;;;;;;;0.80;0.80;;;24.60;46.80;;;;;;4996861;28;20243;-63
2023/07/16 04:57:10;;;;;;;1.07;0.90;;;24.60;46.70;;;;;;4988874;28;20274;-63
2023/07/16 04:59:36;;;;;;;0.87;0.87;;;24.60;46.70;;;;;;4995334;28;20227;-63
2023/07/16 05:02:06;;;;;;;1.07;1.00;;;24.60;46.70;;;;;;4999744;28;20230;-63
2023/07/16 05:04:31;;;;;;;1.00;0.90;;;24.60;46.60;;;;;;4998196;28;20240;-63
2023/07/16 05:06:57;;;;;;;0.90;0.90;;;24.60;46.70;;;;;;4997123;28;20456;-63
2023/07/16 05:09:22;;;;;;;1.10;1.00;;;24.60;46.60;;;;;;4995369;28;20235;-65
2023/07/16 05:11:48;;;;;;;1.03;0.90;;;24.60;46.60;;;;;;4989854;28;20227;-63
2023/07/16 05:14:13;;;;;;;1.10;1.00;;;24.60;46.60;;;;;;4998625;28;20226;-62
2023/07/16 05:16:39;;;;;;;0.80;0.80;;;24.60;46.60;;;;;;5001381;28;20265;-64
2023/07/16 05:19:04;;;;;;;0.90;0.90;;;24.60;46.60;;;;;;4997807;28;20733;-64
2023/07/16 05:21:30;;;;;;;1.10;1.00;;;24.60;46.60;;;;;;4999033;28;20223;-63
2023/07/16 05:23:55;;;;;;;1.03;0.97;;;24.60;46.60;;;;;;4996224;28;20234;-64
2023/07/16 05:26:21;;;;;;;1.00;1.00;;;24.60;46.60;;;;;;4998064;28;20234;-64
2023/07/16 05:28:46;;;;;;;0.90;0.90;;;24.60;46.60;;;;;;4994618;28;20745;-63
2023/07/16 05:31:12;;;;;;;1.03;0.93;;;24.60;46.60;;;;;;4997539;28;20270;-63
2023/07/16 05:33:37;;;;;;;0.80;0.80;;;24.60;46.50;;;;;;4995927;28;20686;-64
2023/07/16 05:36:03;;;;;;;0.80;0.80;;;24.60;46.50;;;;;;4995797;28;20254;-64
2023/07/16 05:38:29;;;;;;;0.87;0.87;;;24.60;46.50;;;;;;4980458;28;20675;-63
2023/07/16 05:41:01;;;;;;;1.10;1.00;;;24.60;46.50;;;;;;4998933;28;20318;-63
2023/07/16 05:43:27;;;;;;;0.90;0.90;;;24.60;46.50;;;;;;4995141;28;20239;-63
2023/07/16 05:45:52;;;;;;;0.90;0.90;;;24.60;46.50;;;;;;4998547;28;20474;-64
2023/07/16 05:48:18;;;;;;;1.83;1.20;;;24.60;46.40;;;;;;4995655;28;20226;-63
2023/07/16 05:50:45;;;;;;;1.00;0.90;;;24.60;46.50;;;;;;4998470;28;20234;-62
2023/07/16 05:53:10;;;;;;;0.90;0.90;;;24.60;47.20;;;;;;4995572;28;20231;-63
2023/07/16 05:55:36;;;;;;;0.90;0.90;;;24.60;46.40;;;;;;4997900;28;20830;-63
2023/07/16 05:58:01;;;;;;;0.80;0.80;;;24.60;46.40;;;;;;4996602;28;20219;-62
2023/07/16 06:00:27;;;;;;;0.93;0.90;;;24.60;46.40;;;;;;4998266;28;20231;-62
2023/07/16 06:02:52;;;;;;;0.80;0.80;;;24.60;46.30;;;;;;4997532;28;20745;-62
2023/07/16 06:05:18;;;;;;;0.80;0.80;;;24.60;46.30;;;;;;4997623;28;20231;-62
2023/07/16 06:07:43;;;;;;;0.97;0.87;;;24.60;46.30;;;;;;4998065;28;20223;-62
2023/07/16 06:10:09;;;;;;;0.80;0.80;;;24.60;46.30;;;;;;4996570;28;20239;-64
2023/07/16 06:12:34;;;;;;;1.47;0.80;;;24.70;46.40;;;;;;4995633;28;20323;-62
2023/07/16 06:15:00;;;;;;;0.87;0.83;;;24.60;46.30;;;;;;4997714;28;20239;-62
2023/07/16 06:17:26;;;;;;;1.00;0.90;;;24.70;46.50;;;;;;4997936;28;20235;-62
2023/07/16 06:19:51;;;;;;;0.90;0.90;;;24.70;46.40;;;;;;4995801;28;20246;-64
2023/07/16 06:22:17;;;;;;;1.07;1.00;;;24.60;46.20;;;;;;4997398;28;20941;-62
2023/07/16 06:24:43;;;;;;;0.90;0.90;;;24.70;46.30;;;;;;4996133;28;20243;-62
2023/07/16 06:27:08;;;;;;;0.90;0.90;;;24.70;46.30;;;;;;4996534;28;20670;-62
2023/07/16 06:29:34;;;;;;;1.00;0.90;;;24.70;46.30;;;;;;4994260;28;20227;-62
2023/07/16 06:31:59;;;;;;;1.10;1.00;;;24.70;46.30;;;;;;4996225;28;20285;-62
2023/07/16 06:34:25;;;;;;;1.00;0.90;;;24.70;46.30;;;;;;4997099;28;20242;-63
2023/07/16 06:36:51;;;;;;;1.10;1.00;;;24.70;46.30;;;;;;4995934;28;20227;-64
2023/07/16 06:39:17;;;;;;;1.10;1.00;;;24.70;46.20;;;;;;4994639;28;20549;-63
2023/07/16 06:41:42;;;;;;;1.00;1.00;;;24.70;46.30;;;;;;4997693;28;20223;-63
2023/07/16 06:44:08;;;;;;;1.13;1.00;;;24.70;46.30;;;;;;4995507;28;20215;-63
2023/07/16 06:46:33;;;;;;;1.03;0.93;;;24.70;46.30;;;;;;4999231;28;20269;-63
2023/07/16 06:48:59;;;;;;;1.20;1.10;;;24.70;46.20;;;;;;4996385;28;20239;-62
2023/07/16 06:51:25;;;;;;;1.13;1.03;;;24.70;46.30;;;;;;4996914;28;20235;-62
2023/07/16 06:53:50;;;;;;;1.23;1.13;;;24.70;46.30;;;;;;4997768;28;20243;-63
2023/07/16 06:56:16;;;;;;;1.10;1.00;;;24.70;46.20;;;;;;4986889;28;20564;-63
2023/07/16 06:58:41;;;;;;;1.20;1.10;;;24.70;46.20;;;;;;4992958;28;20265;-62
2023/07/16 07:01:07;;;;;;;1.00;0.90;;;24.70;46.20;;;;;;4995999;28;20245;-62
2023/07/16 07:03:35;;;;;;;1.00;0.97;;;24.70;46.20;;;;;;4993541;28;20216;-63
2023/07/16 07:06:04;;;;;;;1.23;1.10;;;24.70;46.30;;;;;;4997889;28;20234;-62
2023/07/16 07:08:30;;;;;;;1.17;1.07;;;24.70;46.10;;;;;;4994145;28;21043;-62
2023/07/16 07:10:56;;;;;;;1.07;1.00;;;24.70;46.10;;;;;;4999139;28;20473;-63
2023/07/16 07:13:21;;;;;;;1.13;1.03;;;24.70;46.10;;;;;;4993352;28;20479;-62
2023/07/16 07:15:47;;;;;;;2.60;1.00;;;24.70;46.10;;;;;;5000149;28;20758;-62
2023/07/16 07:18:12;;;;;;;1.30;1.20;;;24.70;46.10;;;;;;4998089;28;20313;-62
2023/07/16 07:20:40;;;;;;;1.20;1.10;;;24.70;46.10;;;;;;4997430;28;20305;-62
2023/07/16 07:23:05;;;;;;;1.50;1.20;;;24.70;46.10;;;;;;4995175;28;20223;-62
2023/07/16 07:25:31;;;;;;;1.20;1.10;;;24.70;46.10;;;;;;4998961;28;21027;-62
2023/07/16 07:27:57;;;;;;;1.73;1.30;;;24.70;46.10;;;;;;4999207;28;20568;-62
2023/07/16 07:30:22;;;;;;;1.30;1.20;;;24.70;46.10;;;;;;4997257;28;20238;-62
2023/07/16 07:32:48;;;;;;;1.40;1.20;;;24.70;46.00;;;;;;4997943;28;20588;-62
2023/07/16 07:35:13;;;;;;;1.37;1.27;;;24.70;46.00;;;;;;4995688;28;20238;-63
2023/07/16 07:37:39;;;;;;;1.30;1.20;;;24.70;46.00;;;;;;4997394;28;20232;-62
2023/07/16 07:40:05;;;;;;;1.40;1.30;;;24.70;46.00;;;;;;4997660;28;20227;-64
2023/07/16 07:42:31;;;;;;;1.27;1.17;;;24.70;46.00;;;;;;4997822;28;20243;-62
2023/07/16 07:44:56;;;;;;;1.17;1.07;;;24.70;46.00;;;;;;4997570;28;20580;-62
2023/07/16 07:47:22;;;;;;;1.60;1.50;;;24.70;45.90;;;;;;4998002;28;20224;-62
2023/07/16 07:49:47;;;;;;;1.37;1.27;;;24.70;46.00;;;;;;4996589;28;20223;-62
2023/07/16 07:52:13;;;;;;;1.37;1.27;;;24.70;46.00;;;;;;4998005;28;20549;-65
2023/07/16 07:54:38;;;;;;;1.40;1.30;;;24.70;46.00;;;;;;4997034;28;20679;-62
2023/07/16 07:57:05;;;;;;;1.60;1.30;;;24.70;46.00;;;;;;4999775;28;20246;-62
2023/07/16 07:59:31;;;;;;;1.60;1.50;;;24.80;46.10;;;;;;4996267;28;20228;-61
2023/07/16 08:02:01;;;;;;;1.50;1.40;;;24.80;46.00;;;;;;4997170;28;20471;-62
2023/07/16 08:04:27;;;;;;;1.30;1.20;;;24.70;45.90;;;;;;4994353;28;20496;-63
2023/07/16 08:06:54;;;;;;;2.07;1.53;;;24.80;46.00;;;;;;4999627;28;20615;-62
2023/07/16 08:09:20;;;;;;;1.40;1.30;;;24.70;45.90;;;;;;4994579;28;20222;-63
2023/07/16 08:11:45;;;;;;;1.83;1.73;;;24.70;45.90;;;;;;4997371;28;20468;-62
2023/07/16 08:14:10;;;;;;;1.93;1.50;;;24.80;46.00;;;;;;4996801;28;20243;-62
2023/07/16 08:16:36;;;;;;;1.23;1.13;;;24.80;46.00;;;;;;5000188;28;20240;-62
2023/07/16 08:19:01;;;;;;;1.93;1.40;;;24.80;46.00;;;;;;4997895;28;20231;-63
2023/07/16 08:21:28;;;;;;;1.50;1.40;;;24.70;45.90;;;;;;4998529;28;20288;-62
2023/07/16 08:23:53;;;;;;;1.63;1.53;;;24.70;45.80;;;;;;4996252;28;20446;-62
2023/07/16 08:26:19;;;;;;;1.63;1.50;;;24.80;46.00;;;;;;4998053;28;20282;-62
2023/07/16 08:28:44;;;;;;;1.47;1.37;;;24.70;45.80;;;;;;4996394;28;20227;-63
2023/07/16 08:31:13;;;;;;;1.57;1.30;;;24.80;45.90;;;;;;5001066;28;20230;-63
2023/07/16 08:33:39;;;;;;;1.57;1.47;;;24.80;45.90;;;;;;4996910;28;20272;-62
2023/07/16 08:36:05;;;;;;;1.67;1.53;;;24.80;45.90;;;;;;4998929;28;20452;-62
2023/07/16 08:38:30;;;;;;;1.83;1.57;;;24.80;45.90;;;;;;4995879;28;20460;-62
2023/07/16 08:40:56;;;;;;;2.03;1.93;;;24.80;45.80;;;;;;4999436;28;20231;-62
2023/07/16 08:43:22;;;;;;;1.50;1.40;;;24.80;45.90;;;;;;4996270;28;20231;-63
2023/07/16 08:45:49;;;;;;;1.50;1.40;;;24.80;45.80;;;;;;4998887;28;20267;-62
2023/07/16 08:48:20;;;;;;;1.60;1.50;;;24.80;45.80;;;;;;4996207;28;20358;-62
2023/07/16 08:50:49;;;;;;;2.20;1.77;;;24.80;45.80;;;;;;4997189;28;20530;-62
2023/07/16 08:53:16;;;;;;;1.63;1.53;;;24.80;45.80;;;;;;4994369;28;20452;-63
2023/07/16 08:55:44;;;;;;;1.80;1.70;;;24.80;45.80;;;;;;4984560;28;20469;-63
2023/07/16 08:58:11;;;;;;;1.50;1.40;;;24.80;45.80;;;;;;4993685;28;20468;-62
2023/07/16 09:00:37;;;;;;;1.73;1.63;;;24.80;45.80;;;;;;4997506;28;20466;-62
2023/07/16 09:03:04;;;;;;;1.67;1.53;;;24.80;45.80;;;;;;4997410;28;20442;-65
2023/07/16 09:05:29;;;;;;;1.77;1.67;;;24.80;45.80;;;;;;4998959;28;20476;-62
2023/07/16 09:07:55;;;;;;;1.50;1.40;;;24.80;45.80;;;;;;4996910;28;20464;-62
2023/07/16 09:10:20;;;;;;;1.90;1.80;;;24.80;45.70;;;;;;4998413;28;20875;-62
2023/07/16 09:12:46;;;;;;;1.73;1.63;;;24.80;45.80;;;;;;4994994;28;20273;-63
2023/07/16 09:15:17;;;;;;;1.67;1.57;;;24.80;45.80;;;;;;4995528;28;20227;-64
2023/07/16 09:17:46;;;;;;;1.50;1.40;;;24.80;45.80;;;;;;4995128;28;20224;-63
2023/07/16 09:20:14;;;;;;;1.70;1.60;;;24.80;45.70;;;;;;4996472;28;20480;-64
2023/07/16 09:22:40;;;;;;;1.57;1.47;;;24.80;45.70;;;;;;4995912;28;20448;-62
2023/07/16 09:25:05;;;;;;;1.73;1.63;;;24.80;45.70;;;;;;4994839;28;21249;-62
2023/07/16 09:27:31;;;;;;;1.73;1.63;;;24.80;45.70;;;;;;4998920;28;20234;-63
2023/07/16 09:30:01;;;;;;;1.50;1.40;;;24.80;45.80;;;;;;4995239;28;20635;-62
2023/07/16 09:32:40;;;;;;;1.80;1.70;;;24.80;45.70;;;;;;4998901;28;20227;-63
2023/07/16 09:35:13;;;;;;;1.50;1.40;;;24.80;45.70;;;;;;4995440;28;20456;-62
2023/07/16 09:37:39;;;;;;;1.50;1.40;;;24.80;45.70;;;;;;4996834;28;20464;-62
2023/07/16 09:40:09;;;;;;;1.40;1.30;;;24.80;45.70;;;;;;4997879;28;20809;-64
2023/07/16 09:42:37;;;;;;;1.70;1.60;;;24.80;45.70;;;;;;4996596;28;20286;-63
2023/07/16 09:45:05;;;;;;;1.77;1.67;;;24.80;45.70;;;;;;4995925;28;20901;-62
2023/07/16 09:47:30;;;;;;;3.10;1.67;;;24.80;45.70;;;;;;5000171;28;20513;-62
2023/07/16 09:49:56;;;;;;;1.90;1.80;;;24.80;45.70;;;;;;4985826;28;21022;-63
2023/07/16 09:52:21;;;;;;;1.70;1.60;;;24.80;45.70;;;;;;4998173;28;20259;-63
2023/07/16 09:54:50;;;;;;;1.60;1.50;;;24.80;45.60;;;;;;4995298;28;20230;-62
2023/07/16 09:57:16;;;;;;;1.90;1.80;;;24.80;45.60;;;;;;4996219;28;20223;-62
2023/07/16 09:59:51;;;;;;;1.60;1.50;;;24.80;45.60;;;;;;5015952;28;20543;-63
2023/07/16 10:02:17;;;;;;;1.60;1.50;;;24.80;45.60;;;;;;5009570;28;20459;-63
2023/07/16 10:04:43;;;;;;;1.70;1.60;;;24.80;46.40;;;;;;5011699;28;20505;-63
2023/07/16 10:07:21;;;;;;;3.20;1.73;;;24.80;45.70;;;;;;5009661;28;20469;-62
2023/07/16 10:09:56;;;;;;;1.83;1.73;;;24.80;45.60;;;;;;5012617;28;20226;-63
2023/07/16 10:12:26;;;;;;;1.90;1.80;;;24.80;45.60;;;;;;5011496;28;20595;-62
2023/07/16 10:14:54;;;;;;;1.80;1.70;;;24.80;45.60;;;;;;5010809;28;20457;-63
2023/07/16 10:17:26;;;;;;;1.90;1.80;;;24.80;45.60;;;;;;5009097;28;20458;-62
2023/07/16 10:20:12;;;;;;;1.70;1.60;;;24.80;45.60;;;;;;5008779;28;22009;-64
2023/07/16 10:22:45;;;;;;;2.00;1.57;;;24.80;45.60;;;;;;5007795;28;20802;-63
2023/07/16 10:25:23;;;;;;;1.67;1.57;;;24.80;45.60;;;;;;5009071;28;20470;-63
2023/07/16 10:27:52;;;;;;;1.60;1.50;;;24.80;45.70;;;;;;5006250;28;20467;-62
2023/07/16 10:30:18;;;;;;;1.80;1.70;;;24.80;45.60;;;;;;4994490;28;20543;-63
2023/07/16 10:32:44;;;;;;;1.73;1.63;;;24.80;45.50;;;;;;4989146;28;20520;-62
2023/07/16 10:35:11;;;;;;;2.13;1.97;;;24.80;45.60;;;;;;4988424;28;21233;-63
2023/07/16 10:37:37;;;;;;;2.00;1.90;;;24.80;45.60;;;;;;4990201;28;20226;-63
2023/07/16 10:40:04;;;;;;;1.60;1.50;;;24.80;45.50;;;;;;4990804;28;20450;-63
2023/07/16 10:42:31;;;;;;;1.67;1.57;;;24.80;45.50;;;;;;5001628;28;20459;-63
2023/07/16 10:45:02;;;;;;;1.60;1.50;;;24.80;45.50;;;;;;4986174;28;20449;-63
2023/07/16 10:47:31;;;;;;;1.87;1.77;;;24.80;45.50;;;;;;4989660;28;20838;-64
2023/07/16 10:49:57;;;;;;;1.70;1.60;;;24.80;45.50;;;;;;5003239;28;20877;-64
2023/07/16 10:52:23;;;;;;;1.70;1.60;;;24.80;45.50;;;;;;5009678;28;20456;-63
2023/07/16 10:54:51;;;;;;;1.80;1.70;;;24.80;45.50;;;;;;5010111;28;20547;-63
2023/07/16 10:57:19;;;;;;;1.60;1.50;;;24.80;45.40;;;;;;5008505;28;20480;-62
2023/07/16 10:59:45;;;;;;;1.70;1.60;;;24.80;45.40;;;;;;4999440;28;20559;-63
2023/07/16 11:02:12;;;;;;;1.90;1.80;;;24.80;45.40;;;;;;4989454;28;20620;-63
2023/07/16 11:04:38;;;;;;;1.80;1.70;;;24.80;45.40;;;;;;4988642;28;20293;-62
2023/07/16 11:07:08;;;;;;;1.73;1.63;;;24.80;45.40;;;;;;4991804;28;21126;-63
2023/07/16 11:09:40;;;;;;;1.60;1.50;;;24.80;45.40;;;;;;5001665;28;20468;-63
2023/07/16 11:12:07;;;;;;;1.77;1.67;;;24.80;45.40;;;;;;4992678;28;20456;-63
2023/07/16 11:14:34;;;;;;;1.93;1.83;;;24.80;45.40;;;;;;4997638;28;20464;-63
2023/07/16 11:17:10;;;;;;;2.30;1.80;;;24.80;45.40;;;;;;4993636;28;20763;-63
2023/07/16 11:19:37;;;;;;;1.60;1.50;;;24.80;45.40;;;;;;4991400;28;20479;-64
2023/07/16 11:22:04;;;;;;;1.80;1.70;;;24.80;45.40;;;;;;4986497;28;20806;-63
2023/07/16 11:24:38;;;;;;;1.83;1.73;;;24.80;45.40;;;;;;4996665;28;20447;-64
2023/07/16 11:27:04;;;;;;;2.03;1.93;;;24.80;45.40;;;;;;4974570;28;20538;-65
2023/07/16 11:29:36;;;;;;;1.70;1.60;;;24.80;45.30;;;;;;4975140;28;20975;-62
2023/07/16 11:32:02;;;;;;;1.93;1.83;;;24.80;45.30;;;;;;4981924;28;20596;-63
2023/07/16 11:34:27;;;;;;;1.80;1.70;;;24.80;45.30;;;;;;4976236;28;20996;-65
2023/07/16 11:36:53;;;;;;;2.00;1.80;;;24.80;46.20;;;;;;4974655;28;20445;-65
2023/07/16 11:39:20;;;;;;;2.13;1.90;;;24.80;45.30;;;;;;4976871;28;20281;-63
2023/07/16 11:41:56;;;;;;;1.80;1.70;;;24.80;45.30;;;;;;4975505;28;20307;-63
2023/07/16 11:44:21;;;;;;;1.70;1.60;;;24.80;45.30;;;;;;4977457;28;21871;-64
2023/07/16 11:46:48;;;;;;;2.20;2.00;;;24.80;45.30;;;;;;4992374;28;20536;-63
2023/07/16 11:49:13;;;;;;;1.90;1.80;;;24.80;45.30;;;;;;4992985;28;20219;-63
2023/07/16 11:51:39;;;;;;;1.77;1.67;;;24.80;45.30;;;;;;4994448;28;20449;-63
2023/07/16 11:54:04;;;;;;;2.10;2.00;;;24.80;45.30;;;;;;4996279;28;20235;-63
2023/07/16 11:56:30;;;;;;;1.80;1.70;;;24.80;45.40;;;;;;4993538;28;20231;-62
2023/07/16 11:58:55;;;;;;;1.60;1.50;;;24.80;45.30;;;;;;5018077;28;20747;-64
2023/07/16 12:01:21;;;;;;;1.90;1.70;;;24.80;45.30;;;;;;4993111;28;20233;-63
2023/07/16 12:03:46;;;;;;;1.90;1.80;;;24.80;45.20;;;;;;4993392;28;20219;-62
2023/07/16 12:06:12;;;;;;;1.93;1.50;;;24.80;45.30;;;;;;4976044;28;20224;-63
2023/07/16 12:08:38;;;;;;;1.80;1.70;;;24.70;45.20;;;;;;4975334;28;20231;-63
2023/07/16 12:11:03;;;;;;;1.73;1.63;;;24.80;45.30;;;;;;4976315;28;20593;-64
2023/07/16 12:13:29;;;;;;;2.37;1.80;;;24.80;45.20;;;;;;4991870;28;20974;-62
2023/07/16 12:15:54;;;;;;;1.90;1.80;;;24.80;45.20;;;;;;4994732;28;20219;-63
2023/07/16 12:18:20;;;;;;;1.77;1.67;;;24.80;45.20;;;;;;4992935;28;20251;-63
2023/07/16 12:20:45;;;;;;;1.73;1.63;;;24.80;45.20;;;;;;4990857;28;20220;-62
2023/07/16 12:23:11;;;;;;;1.67;1.57;;;24.80;45.20;;;;;;4991212;28;20310;-64
2023/07/16 12:25:36;;;;;;;3.47;1.70;;;24.80;46.00;;;;;;4994442;28;20307;-64
2023/07/16 12:28:02;;;;;;;1.60;1.50;;;24.70;45.10;;;;;;4996281;28;20886;-63
2023/07/16 12:30:27;;;;;;;1.70;1.60;;;24.80;45.20;;;;;;4995758;28;20746;-63
2023/07/16 12:32:53;;;;;;;1.73;1.63;;;24.70;45.10;;;;;;4978509;28;20280;-63
2023/07/16 12:35:19;;;;;;;1.73;1.63;;;24.70;45.10;;;;;;4972641;28;20282;-63
2023/07/16 12:37:44;;;;;;;1.80;1.70;;;24.70;45.10;;;;;;4972035;28;20220;-63
2023/07/16 12:40:10;;;;;;;6.23;2.37;;;24.70;45.10;;;;;;4972253;28;20227;-63
2023/07/16 12:42:35;;;;;;;1.70;1.60;;;24.70;45.90;;;;;;4973383;28;20224;-63
2023/07/16 12:45:02;;;;;;;1.80;1.70;;;24.70;45.10;;;;;;4975302;28;20212;-62